sensor_id;sensor_type;location;lat;lon;timestamp;temperature;humidity
7936;DHT22;4013;49.744;8.118;2024-01-15T05:31:33;-0.90;99.90
7936;DHT22;4013;49.744;8.118;2024-01-15T05:34:00;-0.90;99.90
7936;DHT22;4013;49.744;8.118;2024-01-15T05:36:27;-0.90;99.90
7936;DHT22;4013;49.744;8.118;2024-01-15T05:38:53;-0.90;99.90
7936;DHT22;4013;49.744;8.118;2024-01-15T05:41:20;-0.90;99.90
7936;DHT22;4013;49.744;8.118;2024-01-15T05:43:47;-0.90;99.90
7936;DHT22;4013;49.744;8.118;2024-01-15T05:46:14;-0.80;99.90
7936;DHT22;4013;49.744;8.118;2024-01-15T05:48:42;-0.90;99.90
7936;DHT22;4013;49.744;8.118;2024-01-15T05:51:10;-0.80;99.90
7936;DHT22;4013;49.744;8.118;2024-01-15T05:53:37;-0.80;99.90
7936;DHT22;4013;49.744;8.118;2024-01-15T05:56:06;-0.80;99.90
7936;DHT22;4013;49.744;8.118;2024-01-15T05:58:32;-0.90;99.90
7936;DHT22;4013;49.744;8.118;2024-01-15T06:00:59;-0.80;99.90
7936;DHT22;4013;49.744;8.118;2024-01-15T06:03:27;-0.80;99.90
7936;DHT22;4013;49.744;8.118;2024-01-15T06:05:55;-0.80;99.90
7936;DHT22;4013;49.744;8.118;2024-01-15T06:08:22;-0.80;99.90
7936;DHT22;4013;49.744;8.118;2024-01-15T06:10:49;-0.80;99.90
7936;DHT22;4013;49.744;8.118;2024-01-15T06:13:16;-0.70;99.90
7936;DHT22;4013;49.744;8.118;2024-01-15T06:15:43;-0.70;99.90
7936;DHT22;4013;49.744;8.118;2024-01-15T06:18:10;-0.70;99.90
7936;DHT22;4013;49.744;8.118;2024-01-15T06:20:37;-0.70;99.90
7936;DHT22;4013;49.744;8.118;2024-01-15T06:23:05;-0.70;99.90
7936;DHT22;4013;49.744;8.118;2024-01-15T06:25:32;-0.70;99.90
7936;DHT22;4013;49.744;8.118;2024-01-15T06:27:59;-0.70;99.90
7936;DHT22;4013;49.744;8.118;2024-01-15T06:30:26;-0.70;99.90
7936;DHT22;4013;49.744;8.118;2024-01-15T06:32:53;-0.70;99.90
7936;DHT22;4013;49.744;8.118;2024-01-15T06:35:19;-0.60;99.90
7936;DHT22;4013;49.744;8.118;2024-01-15T06:37:46;-0.60;99.90
7936;DHT22;4013;49.744;8.118;2024-01-15T06:40:15;-0.60;99.90
7936;DHT22;4013;49.744;8.118;2024-01-15T06:42:42;-0.60;99.90
7936;DHT22;4013;49.744;8.118;2024-01-15T06:45:09;-0.60;99.90
7936;DHT22;4013;49.744;8.118;2024-01-15T06:47:36;-0.60;99.90
7936;DHT22;4013;49.744;8.118;2024-01-15T06:50:03;-0.60;99.90
7936;DHT22;4013;49.744;8.118;2024-01-15T06:52:32;-0.60;99.90
7936;DHT22;4013;49.744;8.118;2024-01-15T06:54:59;-0.60;99.90
7936;DHT22;4013;49.744;8.118;2024-01-15T06:57:27;-0.50;99.90
7936;DHT22;4013;49.744;8.118;2024-01-15T06:59:54;-0.50;99.90
7936;DHT22;4013;49.744;8.118;2024-01-15T07:02:21;-0.50;99.90
7936;DHT22;4013;49.744;8.118;2024-01-15T07:04:48;-0.50;99.90
7936;DHT22;4013;49.744;8.118;2024-01-15T07:07:15;-0.50;99.90
7936;DHT22;4013;49.744;8.118;2024-01-15T07:09:42;-0.50;99.90
7936;DHT22;4013;49.744;8.118;2024-01-15T07:12:09;-0.50;99.90
7936;DHT22;4013;49.744;8.118;2024-01-15T07:14:37;-0.40;99.90
7936;DHT22;4013;49.744;8.118;2024-01-15T07:17:04;-0.50;99.90
7936;DHT22;4013;49.744;8.118;2024-01-15T07:19:32;-0.50;99.90
7936;DHT22;4013;49.744;8.118;2024-01-15T07:21:59;-0.50;99.90
7936;DHT22;4013;49.744;8.118;2024-01-15T07:24:26;-0.60;99.90
7936;DHT22;4013;49.744;8.118;2024-01-15T07:26:52;-0.50;99.90
7936;DHT22;4013;49.744;8.118;2024-01-15T07:29:19;-0.50;99.90
7936;DHT22;4013;49.744;8.118;2024-01-15T07:31:49;-0.40;99.90
7936;DHT22;4013;49.744;8.118;2024-01-15T07:34:16;-0.40;99.90
7936;DHT22;4013;49.744;8.118;2024-01-15T07:36:44;-0.40;99.90
7936;DHT22;4013;49.744;8.118;2024-01-15T07:39:11;-0.40;99.90
7936;DHT22;4013;49.744;8.118;2024-01-15T07:41:38;-0.40;99.90
7936;DHT22;4013;49.744;8.118;2024-01-15T07:44:05;-0.40;99.90
7936;DHT22;4013;49.744;8.118;2024-01-15T07:46:32;-0.30;99.90
7936;DHT22;4013;49.744;8.118;2024-01-15T07:49:02;-0.30;99.90
7936;DHT22;4013;49.744;8.118;2024-01-15T07:51:32;-0.30;99.90
7936;DHT22;4013;49.744;8.118;2024-01-15T07:53:59;-0.30;99.90
7936;DHT22;4013;49.744;8.118;2024-01-15T07:56:26;-0.20;99.90
7936;DHT22;4013;49.744;8.118;2024-01-15T07:58:53;-0.30;99.90
7936;DHT22;4013;49.744;8.118;2024-01-15T08:01:20;-0.20;99.90
7936;DHT22;4013;49.744;8.118;2024-01-15T08:03:47;-0.20;99.90
7936;DHT22;4013;49.744;8.118;2024-01-15T08:06:16;-0.20;99.90
7936;DHT22;4013;49.744;8.118;2024-01-15T08:08:43;-0.20;99.90
7936;DHT22;4013;49.744;8.118;2024-01-15T08:11:11;-0.20;99.90
7936;DHT22;4013;49.744;8.118;2024-01-15T08:13:38;-0.20;99.90
7936;DHT22;4013;49.744;8.118;2024-01-15T08:16:05;-0.20;99.90
7936;DHT22;4013;49.744;8.118;2024-01-15T08:18:34;-0.20;99.90
7936;DHT22;4013;49.744;8.118;2024-01-15T08:21:02;-0.10;99.90
7936;DHT22;4013;49.744;8.118;2024-01-15T08:23:31;-0.10;99.90
7936;DHT22;4013;49.744;8.118;2024-01-15T08:25:58;-0.10;99.90
7936;DHT22;4013;49.744;8.118;2024-01-15T08:28:25;-0.10;99.90
7936;DHT22;4013;49.744;8.118;2024-01-15T08:30:52;0.00;99.90
7936;DHT22;4013;49.744;8.118;2024-01-15T08:33:19;0.00;99.90
7936;DHT22;4013;49.744;8.118;2024-01-15T08:35:46;-0.10;99.90
7936;DHT22;4013;49.744;8.118;2024-01-15T08:38:13;0.00;99.90
7936;DHT22;4013;49.744;8.118;2024-01-15T08:40:41;0.00;99.90
7936;DHT22;4013;49.744;8.118;2024-01-15T08:43:08;0.00;99.90
7936;DHT22;4013;49.744;8.118;2024-01-15T08:45:35;0.00;99.90
7936;DHT22;4013;49.744;8.118;2024-01-15T08:48:03;0.00;99.90
7936;DHT22;4013;49.744;8.118;2024-01-15T08:50:30;0.00;99.90
7936;DHT22;4013;49.744;8.118;2024-01-15T08:52:57;0.10;99.90
7936;DHT22;4013;49.744;8.118;2024-01-15T08:55:24;0.10;99.90
7936;DHT22;4013;49.744;8.118;2024-01-15T08:57:52;0.20;99.90
7936;DHT22;4013;49.744;8.118;2024-01-15T09:00:19;0.10;99.90
7936;DHT22;4013;49.744;8.118;2024-01-15T09:02:46;0.10;99.90
7936;DHT22;4013;49.744;8.118;2024-01-15T09:05:13;0.10;99.90
7936;DHT22;4013;49.744;8.118;2024-01-15T09:07:40;0.10;99.90
7936;DHT22;4013;49.744;8.118;2024-01-15T09:10:08;0.20;99.90
7936;DHT22;4013;49.744;8.118;2024-01-15T09:12:35;0.20;99.90
7936;DHT22;4013;49.744;8.118;2024-01-15T09:15:04;0.20;99.90
7936;DHT22;4013;49.744;8.118;2024-01-15T09:17:31;0.30;99.90
7936;DHT22;4013;49.744;8.118;2024-01-15T09:19:58;0.30;99.90
7936;DHT22;4013;49.744;8.118;2024-01-15T09:22:25;0.30;99.90
7936;DHT22;4013;49.744;8.118;2024-01-15T09:24:52;0.30;99.90
7936;DHT22;4013;49.744;8.118;2024-01-15T09:27:19;0.40;99.90
7936;DHT22;4013;49.744;8.118;2024-01-15T09:29:46;0.40;99.90
7936;DHT22;4013;49.744;8.118;2024-01-15T09:32:14;0.40;99.90
7936;DHT22;4013;49.744;8.118;2024-01-15T09:34:41;0.40;99.90
7936;DHT22;4013;49.744;8.118;2024-01-15T09:37:08;0.40;99.90
7936;DHT22;4013;49.744;8.118;2024-01-15T09:39:35;0.50;99.90
7936;DHT22;4013;49.744;8.118;2024-01-15T09:42:02;0.60;99.90
7936;DHT22;4013;49.744;8.118;2024-01-15T09:44:29;0.50;99.90
7936;DHT22;4013;49.744;8.118;2024-01-15T09:46:57;0.50;99.90
7936;DHT22;4013;49.744;8.118;2024-01-15T09:49:26;0.50;99.90
7936;DHT22;4013;49.744;8.118;2024-01-15T09:51:56;0.50;99.90
7936;DHT22;4013;49.744;8.118;2024-01-15T09:54:23;0.50;99.90
7936;DHT22;4013;49.744;8.118;2024-01-15T09:56:51;0.60;99.90
7936;DHT22;4013;49.744;8.118;2024-01-15T09:59:18;0.60;99.90
7936;DHT22;4013;49.744;8.118;2024-01-15T10:01:46;0.50;99.90
7936;DHT22;4013;49.744;8.118;2024-01-15T10:04:14;0.60;99.90
7936;DHT22;4013;49.744;8.118;2024-01-15T10:06:46;0.60;99.90
7936;DHT22;4013;49.744;8.118;2024-01-15T10:09:13;0.60;99.90
7936;DHT22;4013;49.744;8.118;2024-01-15T10:11:41;0.50;99.90
7936;DHT22;4013;49.744;8.118;2024-01-15T10:14:09;0.60;99.90
7936;DHT22;4013;49.744;8.118;2024-01-15T10:16:38;0.50;99.90
7936;DHT22;4013;49.744;8.118;2024-01-15T10:19:04;0.50;99.90
7936;DHT22;4013;49.744;8.118;2024-01-15T10:21:32;0.50;99.90
7936;DHT22;4013;49.744;8.118;2024-01-15T10:24:02;0.60;99.90
7936;DHT22;4013;49.744;8.118;2024-01-15T10:26:30;0.60;99.90
7936;DHT22;4013;49.744;8.118;2024-01-15T10:28:58;0.60;99.90
7936;DHT22;4013;49.744;8.118;2024-01-15T10:31:25;0.60;99.90
7936;DHT22;4013;49.744;8.118;2024-01-15T10:33:52;0.60;99.90
7936;DHT22;4013;49.744;8.118;2024-01-15T10:36:19;0.60;99.90
7936;DHT22;4013;49.744;8.118;2024-01-15T10:38:47;0.50;99.90
7936;DHT22;4013;49.744;8.118;2024-01-15T10:41:16;0.60;99.90
7936;DHT22;4013;49.744;8.118;2024-01-15T10:43:42;0.60;99.90
7936;DHT22;4013;49.744;8.118;2024-01-15T10:46:10;0.60;99.90
7936;DHT22;4013;49.744;8.118;2024-01-15T10:48:38;0.70;99.90
7936;DHT22;4013;49.744;8.118;2024-01-15T10:51:06;0.70;99.90
7936;DHT22;4013;49.744;8.118;2024-01-15T10:53:38;0.70;99.90
7936;DHT22;4013;49.744;8.118;2024-01-15T10:56:06;0.80;99.90
7936;DHT22;4013;49.744;8.118;2024-01-15T10:58:36;0.70;99.90
7936;DHT22;4013;49.744;8.118;2024-01-15T11:01:04;0.80;99.90
7936;DHT22;4013;49.744;8.118;2024-01-15T11:03:31;0.80;99.90
7936;DHT22;4013;49.744;8.118;2024-01-15T11:05:59;0.80;99.90
7936;DHT22;4013;49.744;8.118;2024-01-15T11:08:26;0.80;99.90
7936;DHT22;4013;49.744;8.118;2024-01-15T11:10:53;0.70;99.90
7936;DHT22;4013;49.744;8.118;2024-01-15T11:13:21;0.70;99.90
7936;DHT22;4013;49.744;8.118;2024-01-15T11:15:57;0.70;99.90
7936;DHT22;4013;49.744;8.118;2024-01-15T11:18:23;0.70;99.90
7936;DHT22;4013;49.744;8.118;2024-01-15T11:21:21;0.70;99.90
7936;DHT22;4013;49.744;8.118;2024-01-15T11:23:50;0.70;99.90
7936;DHT22;4013;49.744;8.118;2024-01-15T11:26:31;0.70;99.90
7936;DHT22;4013;49.744;8.118;2024-01-15T11:28:59;0.70;99.90
7936;DHT22;4013;49.744;8.118;2024-01-15T11:31:29;0.70;99.90
7936;DHT22;4013;49.744;8.118;2024-01-15T11:33:56;0.70;99.90
7936;DHT22;4013;49.744;8.118;2024-01-15T11:39:47;0.80;99.90
7936;DHT22;4013;49.744;8.118;2024-01-15T11:42:15;0.80;99.90
7936;DHT22;4013;49.744;8.118;2024-01-15T11:44:44;0.80;99.90
7936;DHT22;4013;49.744;8.118;2024-01-15T11:47:13;0.90;99.90
7936;DHT22;4013;49.744;8.118;2024-01-15T11:49:58;0.80;99.90
7936;DHT22;4013;49.744;8.118;2024-01-15T11:52:25;0.90;99.90
7936;DHT22;4013;49.744;8.118;2024-01-15T11:55:00;1.00;99.90
7936;DHT22;4013;49.744;8.118;2024-01-15T11:57:37;1.10;99.90
7936;DHT22;4013;49.744;8.118;2024-01-15T12:00:09;1.20;99.90
7936;DHT22;4013;49.744;8.118;2024-01-15T12:02:37;1.30;99.90
7936;DHT22;4013;49.744;8.118;2024-01-15T12:05:05;1.30;99.90
7936;DHT22;4013;49.744;8.118;2024-01-15T12:07:33;1.40;99.90
7936;DHT22;4013;49.744;8.118;2024-01-15T12:10:00;1.40;99.90
7936;DHT22;4013;49.744;8.118;2024-01-15T12:12:34;1.50;99.90
7936;DHT22;4013;49.744;8.118;2024-01-15T12:15:03;1.60;99.90
7936;DHT22;4013;49.744;8.118;2024-01-15T12:17:31;1.60;99.90
7936;DHT22;4013;49.744;8.118;2024-01-15T12:19:59;1.60;99.90
7936;DHT22;4013;49.744;8.118;2024-01-15T12:22:26;1.70;99.90
7936;DHT22;4013;49.744;8.118;2024-01-15T12:24:54;1.70;99.90
7936;DHT22;4013;49.744;8.118;2024-01-15T12:27:21;1.70;99.90
7936;DHT22;4013;49.744;8.118;2024-01-15T12:29:48;1.60;99.90
7936;DHT22;4013;49.744;8.118;2024-01-15T12:32:16;1.60;99.90
7936;DHT22;4013;49.744;8.118;2024-01-15T12:34:46;1.60;99.90
7936;DHT22;4013;49.744;8.118;2024-01-15T12:37:14;1.60;99.90
7936;DHT22;4013;49.744;8.118;2024-01-15T12:39:43;1.60;99.90
7936;DHT22;4013;49.744;8.118;2024-01-15T12:42:10;1.60;99.90
7936;DHT22;4013;49.744;8.118;2024-01-15T12:44:37;1.60;99.90
7936;DHT22;4013;49.744;8.118;2024-01-15T12:47:04;1.60;99.90
7936;DHT22;4013;49.744;8.118;2024-01-15T12:49:31;1.70;99.90
7936;DHT22;4013;49.744;8.118;2024-01-15T12:51:59;1.70;99.90
7936;DHT22;4013;49.744;8.118;2024-01-15T12:54:27;1.70;99.90
7936;DHT22;4013;49.744;8.118;2024-01-15T12:56:54;1.80;99.90
7936;DHT22;4013;49.744;8.118;2024-01-15T12:59:21;1.80;99.90
7936;DHT22;4013;49.744;8.118;2024-01-15T13:01:48;1.80;99.90
7936;DHT22;4013;49.744;8.118;2024-01-15T13:04:21;1.80;99.90
7936;DHT22;4013;49.744;8.118;2024-01-15T13:06:49;1.80;99.90
7936;DHT22;4013;49.744;8.118;2024-01-15T13:09:16;1.90;99.90
7936;DHT22;4013;49.744;8.118;2024-01-15T13:11:45;1.90;99.90
7936;DHT22;4013;49.744;8.118;2024-01-15T13:14:12;1.90;99.90
7936;DHT22;4013;49.744;8.118;2024-01-15T13:16:40;1.90;99.90
7936;DHT22;4013;49.744;8.118;2024-01-15T13:19:07;2.00;99.90
7936;DHT22;4013;49.744;8.118;2024-01-15T13:21:36;2.00;99.90
7936;DHT22;4013;49.744;8.118;2024-01-15T13:24:03;2.10;99.90
7936;DHT22;4013;49.744;8.118;2024-01-15T13:26:31;2.10;99.90
7936;DHT22;4013;49.744;8.118;2024-01-15T13:28:59;2.20;99.90
7936;DHT22;4013;49.744;8.118;2024-01-15T13:31:26;2.20;99.90
7936;DHT22;4013;49.744;8.118;2024-01-15T13:33:54;2.30;99.90
7936;DHT22;4013;49.744;8.118;2024-01-15T13:36:21;2.30;99.90
7936;DHT22;4013;49.744;8.118;2024-01-15T13:38:49;2.40;99.90
7936;DHT22;4013;49.744;8.118;2024-01-15T13:41:16;2.60;99.90
7936;DHT22;4013;49.744;8.118;2024-01-15T13:43:48;2.70;99.90
7936;DHT22;4013;49.744;8.118;2024-01-15T13:46:16;2.80;99.90
7936;DHT22;4013;49.744;8.118;2024-01-15T13:48:43;2.80;99.90
7936;DHT22;4013;49.744;8.118;2024-01-15T13:51:10;2.70;99.90
7936;DHT22;4013;49.744;8.118;2024-01-15T13:53:38;2.60;99.90
7936;DHT22;4013;49.744;8.118;2024-01-15T13:56:05;2.50;99.90
7936;DHT22;4013;49.744;8.118;2024-01-15T13:58:33;2.40;99.90
7936;DHT22;4013;49.744;8.118;2024-01-15T14:01:00;2.30;99.90
7936;DHT22;4013;49.744;8.118;2024-01-15T14:03:30;2.30;99.90
7936;DHT22;4013;49.744;8.118;2024-01-15T14:05:57;2.30;99.90
7936;DHT22;4013;49.744;8.118;2024-01-15T14:08:24;2.30;99.90
7936;DHT22;4013;49.744;8.118;2024-01-15T14:10:51;2.30;99.90
7936;DHT22;4013;49.744;8.118;2024-01-15T14:13:18;2.40;99.90
7936;DHT22;4013;49.744;8.118;2024-01-15T14:15:45;2.30;99.90
7936;DHT22;4013;49.744;8.118;2024-01-15T14:18:14;2.40;99.90
7936;DHT22;4013;49.744;8.118;2024-01-15T14:20:42;2.30;99.90
7936;DHT22;4013;49.744;8.118;2024-01-15T14:23:10;2.30;99.90
7936;DHT22;4013;49.744;8.118;2024-01-15T14:25:36;2.30;99.90
7936;DHT22;4013;49.744;8.118;2024-01-15T14:28:04;2.40;99.90
7936;DHT22;4013;49.744;8.118;2024-01-15T14:30:32;2.30;99.90
7936;DHT22;4013;49.744;8.118;2024-01-15T14:32:59;2.20;99.90
7936;DHT22;4013;49.744;8.118;2024-01-15T14:35:26;2.20;99.90
7936;DHT22;4013;49.744;8.118;2024-01-15T14:37:55;2.20;99.90
7936;DHT22;4013;49.744;8.118;2024-01-15T14:40:24;2.20;99.90
7936;DHT22;4013;49.744;8.118;2024-01-15T14:42:51;2.20;99.90
7936;DHT22;4013;49.744;8.118;2024-01-15T14:45:18;2.10;99.90
7936;DHT22;4013;49.744;8.118;2024-01-15T14:47:45;2.20;99.90
7936;DHT22;4013;49.744;8.118;2024-01-15T14:50:12;2.10;99.90
7936;DHT22;4013;49.744;8.118;2024-01-15T14:52:39;2.10;99.90
7936;DHT22;4013;49.744;8.118;2024-01-15T14:55:09;2.10;99.90
7936;DHT22;4013;49.744;8.118;2024-01-15T14:57:36;2.10;99.90
7936;DHT22;4013;49.744;8.118;2024-01-15T15:00:04;2.10;99.90
7936;DHT22;4013;49.744;8.118;2024-01-15T15:02:33;2.00;99.90
7936;DHT22;4013;49.744;8.118;2024-01-15T15:05:00;2.00;99.90
7936;DHT22;4013;49.744;8.118;2024-01-15T15:07:27;2.00;99.90
7936;DHT22;4013;49.744;8.118;2024-01-15T15:09:54;2.00;99.90
7936;DHT22;4013;49.744;8.118;2024-01-15T15:12:23;1.90;99.90
7936;DHT22;4013;49.744;8.118;2024-01-15T15:14:50;1.90;99.90
7936;DHT22;4013;49.744;8.118;2024-01-15T15:17:17;1.90;99.90
7936;DHT22;4013;49.744;8.118;2024-01-15T15:19:44;1.90;99.90
7936;DHT22;4013;49.744;8.118;2024-01-15T15:22:11;1.80;99.90
7936;DHT22;4013;49.744;8.118;2024-01-15T15:24:38;1.80;99.90
7936;DHT22;4013;49.744;8.118;2024-01-15T15:27:05;1.80;99.90
7936;DHT22;4013;49.744;8.118;2024-01-15T15:29:33;1.80;99.90
7936;DHT22;4013;49.744;8.118;2024-01-15T15:32:01;1.80;99.90
7936;DHT22;4013;49.744;8.118;2024-01-15T15:34:28;1.80;99.90
7936;DHT22;4013;49.744;8.118;2024-01-15T15:36:55;1.80;99.90
7936;DHT22;4013;49.744;8.118;2024-01-15T15:39:22;1.80;99.90
7936;DHT22;4013;49.744;8.118;2024-01-15T15:41:50;1.80;99.90
7936;DHT22;4013;49.744;8.118;2024-01-15T15:44:17;1.80;99.90
7936;DHT22;4013;49.744;8.118;2024-01-15T15:46:45;1.70;99.90
7936;DHT22;4013;49.744;8.118;2024-01-15T15:49:12;1.70;99.90
7936;DHT22;4013;49.744;8.118;2024-01-15T15:51:40;1.70;99.90
7936;DHT22;4013;49.744;8.118;2024-01-15T15:54:07;1.70;99.90
7936;DHT22;4013;49.744;8.118;2024-01-15T15:56:34;1.70;99.90
7936;DHT22;4013;49.744;8.118;2024-01-15T15:59:04;1.70;99.90
7936;DHT22;4013;49.744;8.118;2024-01-15T16:01:36;1.60;99.90
7936;DHT22;4013;49.744;8.118;2024-01-15T16:04:04;1.60;99.90
7936;DHT22;4013;49.744;8.118;2024-01-15T16:06:31;1.60;99.90
7936;DHT22;4013;49.744;8.118;2024-01-15T16:08:58;1.60;99.90
7936;DHT22;4013;49.744;8.118;2024-01-15T16:11:25;1.60;99.90
7936;DHT22;4013;49.744;8.118;2024-01-15T16:13:52;1.60;99.90
7936;DHT22;4013;49.744;8.118;2024-01-15T16:16:19;1.60;99.90
7936;DHT22;4013;49.744;8.118;2024-01-15T16:18:45;1.60;99.90
7936;DHT22;4013;49.744;8.118;2024-01-15T16:21:14;1.60;99.90
7936;DHT22;4013;49.744;8.118;2024-01-15T16:23:42;1.60;99.90
7936;DHT22;4013;49.744;8.118;2024-01-15T16:26:09;1.60;99.90
7936;DHT22;4013;49.744;8.118;2024-01-15T16:28:36;1.60;99.90
7936;DHT22;4013;49.744;8.118;2024-01-15T16:31:03;1.60;99.90
7936;DHT22;4013;49.744;8.118;2024-01-15T16:33:30;1.60;99.90
7936;DHT22;4013;49.744;8.118;2024-01-15T16:35:59;1.70;99.90
7936;DHT22;4013;49.744;8.118;2024-01-15T16:38:27;1.70;99.90
7936;DHT22;4013;49.744;8.118;2024-01-15T16:40:55;1.70;99.90
7936;DHT22;4013;49.744;8.118;2024-01-15T16:43:22;1.70;99.90
7936;DHT22;4013;49.744;8.118;2024-01-15T16:45:49;1.70;99.90
7936;DHT22;4013;49.744;8.118;2024-01-15T16:48:16;1.70;99.90
7936;DHT22;4013;49.744;8.118;2024-01-15T16:50:44;1.80;99.90
7936;DHT22;4013;49.744;8.118;2024-01-15T16:53:11;1.80;99.90
7936;DHT22;4013;49.744;8.118;2024-01-15T16:55:39;1.70;99.90
7936;DHT22;4013;49.744;8.118;2024-01-15T16:58:07;1.80;99.90
7936;DHT22;4013;49.744;8.118;2024-01-15T17:00:34;1.70;99.90
7936;DHT22;4013;49.744;8.118;2024-01-15T17:03:02;1.70;99.90
7936;DHT22;4013;49.744;8.118;2024-01-15T17:05:30;1.70;99.90
7936;DHT22;4013;49.744;8.118;2024-01-15T17:07:56;1.70;99.90
7936;DHT22;4013;49.744;8.118;2024-01-15T17:10:23;1.70;99.90
7936;DHT22;4013;49.744;8.118;2024-01-15T17:12:51;1.70;99.90
7936;DHT22;4013;49.744;8.118;2024-01-15T17:15:18;1.80;99.90
7936;DHT22;4013;49.744;8.118;2024-01-15T17:17:45;1.80;99.90
7936;DHT22;4013;49.744;8.118;2024-01-15T17:20:12;1.80;99.90
7936;DHT22;4013;49.744;8.118;2024-01-15T17:22:39;1.80;99.90
7936;DHT22;4013;49.744;8.118;2024-01-15T17:25:07;1.70;99.90
7936;DHT22;4013;49.744;8.118;2024-01-15T17:27:34;1.80;99.90
7936;DHT22;4013;49.744;8.118;2024-01-15T17:30:02;1.80;99.90
7936;DHT22;4013;49.744;8.118;2024-01-15T17:32:30;1.70;99.90
7936;DHT22;4013;49.744;8.118;2024-01-15T17:34:56;1.70;99.90
7936;DHT22;4013;49.744;8.118;2024-01-15T17:37:24;1.70;99.90
7936;DHT22;4013;49.744;8.118;2024-01-15T17:39:52;1.70;99.90
7936;DHT22;4013;49.744;8.118;2024-01-15T17:42:19;1.60;99.90
7936;DHT22;4013;49.744;8.118;2024-01-15T17:44:46;1.60;99.90
7936;DHT22;4013;49.744;8.118;2024-01-15T17:47:15;1.60;99.90
7936;DHT22;4013;49.744;8.118;2024-01-15T17:49:42;1.60;99.90
7936;DHT22;4013;49.744;8.118;2024-01-15T17:52:09;1.60;99.90
7936;DHT22;4013;49.744;8.118;2024-01-15T17:54:36;1.60;99.90
7936;DHT22;4013;49.744;8.118;2024-01-15T17:57:04;1.70;99.90
7936;DHT22;4013;49.744;8.118;2024-01-15T17:59:32;1.70;99.90
7936;DHT22;4013;49.744;8.118;2024-01-15T18:01:59;1.70;99.90
7936;DHT22;4013;49.744;8.118;2024-01-15T18:04:27;1.70;99.90
7936;DHT22;4013;49.744;8.118;2024-01-15T18:06:54;1.70;99.90
7936;DHT22;4013;49.744;8.118;2024-01-15T18:09:21;1.70;99.90
7936;DHT22;4013;49.744;8.118;2024-01-15T18:11:48;1.70;99.90
7936;DHT22;4013;49.744;8.118;2024-01-15T18:14:15;1.70;99.90
7936;DHT22;4013;49.744;8.118;2024-01-15T18:16:42;1.70;99.90
7936;DHT22;4013;49.744;8.118;2024-01-15T18:19:13;1.70;99.90
7936;DHT22;4013;49.744;8.118;2024-01-15T18:21:44;1.60;99.90
7936;DHT22;4013;49.744;8.118;2024-01-15T18:24:11;1.70;99.90
7936;DHT22;4013;49.744;8.118;2024-01-15T18:26:39;1.70;99.90
7936;DHT22;4013;49.744;8.118;2024-01-15T18:29:07;1.70;99.90
7936;DHT22;4013;49.744;8.118;2024-01-15T18:31:34;1.70;99.90
7936;DHT22;4013;49.744;8.118;2024-01-15T18:34:01;1.70;99.90
7936;DHT22;4013;49.744;8.118;2024-01-15T18:36:28;1.70;99.90
7936;DHT22;4013;49.744;8.118;2024-01-15T18:38:56;1.60;99.90
7936;DHT22;4013;49.744;8.118;2024-01-15T18:41:31;1.60;99.90
7936;DHT22;4013;49.744;8.118;2024-01-15T18:43:58;1.60;99.90
7936;DHT22;4013;49.744;8.118;2024-01-15T18:46:27;1.60;99.90
7936;DHT22;4013;49.744;8.118;2024-01-15T18:48:54;1.60;99.90
7936;DHT22;4013;49.744;8.118;2024-01-15T18:51:22;1.60;99.90
7936;DHT22;4013;49.744;8.118;2024-01-15T18:53:49;1.60;99.90
7936;DHT22;4013;49.744;8.118;2024-01-15T18:56:18;1.60;99.90
7936;DHT22;4013;49.744;8.118;2024-01-15T18:58:45;1.60;99.90
7936;DHT22;4013;49.744;8.118;2024-01-15T19:01:12;1.70;99.90
7936;DHT22;4013;49.744;8.118;2024-01-15T19:03:40;1.60;99.90
7936;DHT22;4013;49.744;8.118;2024-01-15T19:06:07;1.50;99.90
7936;DHT22;4013;49.744;8.118;2024-01-15T19:08:34;1.50;99.90
7936;DHT22;4013;49.744;8.118;2024-01-15T19:11:01;1.40;99.90
7936;DHT22;4013;49.744;8.118;2024-01-15T19:13:30;1.40;99.90
7936;DHT22;4013;49.744;8.118;2024-01-15T19:15:57;1.30;99.90
7936;DHT22;4013;49.744;8.118;2024-01-15T19:18:25;1.30;99.90
7936;DHT22;4013;49.744;8.118;2024-01-15T19:20:53;1.20;99.90
7936;DHT22;4013;49.744;8.118;2024-01-15T19:23:20;1.20;99.90
7936;DHT22;4013;49.744;8.118;2024-01-15T19:25:47;1.20;99.90
7936;DHT22;4013;49.744;8.118;2024-01-15T19:28:14;1.10;99.90
7936;DHT22;4013;49.744;8.118;2024-01-15T19:30:42;1.10;99.90
7936;DHT22;4013;49.744;8.118;2024-01-15T19:33:09;1.10;99.90
7936;DHT22;4013;49.744;8.118;2024-01-15T19:35:36;1.00;99.90
7936;DHT22;4013;49.744;8.118;2024-01-15T19:38:04;1.10;99.90
7936;DHT22;4013;49.744;8.118;2024-01-15T19:40:31;1.10;99.90
7936;DHT22;4013;49.744;8.118;2024-01-15T19:42:59;1.10;99.90
7936;DHT22;4013;49.744;8.118;2024-01-15T19:45:27;1.10;99.90
7936;DHT22;4013;49.744;8.118;2024-01-15T19:47:55;1.10;99.90
7936;DHT22;4013;49.744;8.118;2024-01-15T19:50:22;1.10;99.90
7936;DHT22;4013;49.744;8.118;2024-01-15T19:52:49;1.10;99.90
7936;DHT22;4013;49.744;8.118;2024-01-15T19:55:16;1.10;99.90
7936;DHT22;4013;49.744;8.118;2024-01-15T19:57:43;1.10;99.90
7936;DHT22;4013;49.744;8.118;2024-01-15T20:00:11;1.10;99.90
7936;DHT22;4013;49.744;8.118;2024-01-15T20:02:37;1.10;99.90
7936;DHT22;4013;49.744;8.118;2024-01-15T20:05:07;1.00;99.90
7936;DHT22;4013;49.744;8.118;2024-01-15T20:07:35;1.00;99.90
7936;DHT22;4013;49.744;8.118;2024-01-15T20:10:02;0.90;99.90
7936;DHT22;4013;49.744;8.118;2024-01-15T20:12:30;0.90;99.90
7936;DHT22;4013;49.744;8.118;2024-01-15T20:14:57;0.90;99.90
7936;DHT22;4013;49.744;8.118;2024-01-15T20:17:24;0.90;99.90
7936;DHT22;4013;49.744;8.118;2024-01-15T20:19:51;0.90;99.90
7936;DHT22;4013;49.744;8.118;2024-01-15T20:22:19;0.90;99.90
7936;DHT22;4013;49.744;8.118;2024-01-15T20:24:46;0.90;99.90
7936;DHT22;4013;49.744;8.118;2024-01-15T20:27:13;0.80;99.90
7936;DHT22;4013;49.744;8.118;2024-01-15T20:29:41;0.80;99.90
7936;DHT22;4013;49.744;8.118;2024-01-15T20:32:09;0.80;99.90
7936;DHT22;4013;49.744;8.118;2024-01-15T20:34:37;0.80;99.90
7936;DHT22;4013;49.744;8.118;2024-01-15T20:37:04;0.80;99.90
7936;DHT22;4013;49.744;8.118;2024-01-15T20:39:32;0.80;99.90
7936;DHT22;4013;49.744;8.118;2024-01-15T20:42:01;0.80;99.90
7936;DHT22;4013;49.744;8.118;2024-01-15T20:44:28;0.80;99.90
7936;DHT22;4013;49.744;8.118;2024-01-15T20:46:55;0.80;99.90
7936;DHT22;4013;49.744;8.118;2024-01-15T20:49:23;0.80;99.90
7936;DHT22;4013;49.744;8.118;2024-01-15T20:51:51;0.80;99.90
7936;DHT22;4013;49.744;8.118;2024-01-15T20:54:18;0.80;99.90
7936;DHT22;4013;49.744;8.118;2024-01-15T20:56:47;0.70;99.90
7936;DHT22;4013;49.744;8.118;2024-01-15T20:59:14;0.70;99.90
7936;DHT22;4013;49.744;8.118;2024-01-15T21:01:40;0.70;99.90
7936;DHT22;4013;49.744;8.118;2024-01-15T21:04:07;0.70;99.90
7936;DHT22;4013;49.744;8.118;2024-01-15T21:06:37;0.70;99.90
7936;DHT22;4013;49.744;8.118;2024-01-15T21:09:04;0.70;99.90
7936;DHT22;4013;49.744;8.118;2024-01-15T21:11:32;0.70;99.90
7936;DHT22;4013;49.744;8.118;2024-01-15T21:14:00;0.70;99.90
7936;DHT22;4013;49.744;8.118;2024-01-15T21:16:28;0.70;99.90
7936;DHT22;4013;49.744;8.118;2024-01-15T21:18:55;0.70;99.90
7936;DHT22;4013;49.744;8.118;2024-01-15T21:21:22;0.70;99.90
7936;DHT22;4013;49.744;8.118;2024-01-15T21:23:49;0.70;99.90
7936;DHT22;4013;49.744;8.118;2024-01-15T21:26:16;0.70;99.90
7936;DHT22;4013;49.744;8.118;2024-01-15T21:28:44;0.70;99.90
7936;DHT22;4013;49.744;8.118;2024-01-15T21:31:14;0.60;99.90
7936;DHT22;4013;49.744;8.118;2024-01-15T21:33:43;0.70;99.90
7936;DHT22;4013;49.744;8.118;2024-01-15T21:36:11;0.70;99.90
7936;DHT22;4013;49.744;8.118;2024-01-15T21:38:40;0.60;99.90
7936;DHT22;4013;49.744;8.118;2024-01-15T21:41:07;0.60;99.90
7936;DHT22;4013;49.744;8.118;2024-01-15T21:43:34;0.60;99.90
7936;DHT22;4013;49.744;8.118;2024-01-15T21:46:02;0.60;99.90
7936;DHT22;4013;49.744;8.118;2024-01-15T21:48:31;0.60;99.90
7936;DHT22;4013;49.744;8.118;2024-01-15T21:51:00;0.60;99.90